Home > Products > Valid Products > TAF

000
FTUS43 KMKX 292103 AAA
TAFMSN
TAF AMD
KMSN 292103Z 2921/3018 33008KT P6SM SCT060
     FM292300 32008KT P6SM VCTS BKN050CB
     FM300200 30005KT P6SM SCT060
     FM301400 33005KT P6SM FEW040=



000
FTUS43 KMKX 292103 AAA
TAFMSN
TAF AMD
KMSN 292103Z 2921/3018 33008KT P6SM SCT060
     FM292300 32008KT P6SM VCTS BKN050CB
     FM300200 30005KT P6SM SCT060
     FM301400 33005KT P6SM FEW040=



000
FTUS43 KMKX 292100 AAB
TAFMKE
TAF AMD
KMKE 292100Z 2921/3024 32009KT P6SM SCT060
     FM300000 32006KT P6SM VCTS BKN050CB
     FM300200 29004KT P6SM VCSH BKN050
     FM300600 VRB04KT P6SM FEW100 SCT200
     FM301600 36006KT P6SM FEW120 SCT250
     FM301800 08008KT P6SM SCT050=



000
FTUS43 KMKX 292100 AAB
TAFMKE
TAF AMD
KMKE 292100Z 2921/3024 32009KT P6SM SCT060
     FM300000 32006KT P6SM VCTS BKN050CB
     FM300200 29004KT P6SM VCSH BKN050
     FM300600 VRB04KT P6SM FEW100 SCT200
     FM301600 36006KT P6SM FEW120 SCT250
     FM301800 08008KT P6SM SCT050=



000
FTUS43 KMKX 291930 AAA
TAFMKE
TAF AMD
KMKE 291930Z 2920/3024 34011KT P6SM FEW050 SCT120
     FM292000 11010KT P6SM SCT050
     FM300100 17006KT P6SM VCTS BKN050CB
     FM300200 23004KT P6SM VCSH BKN050
     FM300600 29004KT P6SM FEW100 SCT200
     FM301600 36006KT P6SM FEW120 SCT250
     FM301800 08007KT P6SM SCT050 SCT200=



000
FTUS43 KMKX 291930 AAA
TAFMKE
TAF AMD
KMKE 291930Z 2920/3024 34011KT P6SM FEW050 SCT120
     FM292000 11010KT P6SM SCT050
     FM300100 17006KT P6SM VCTS BKN050CB
     FM300200 23004KT P6SM VCSH BKN050
     FM300600 29004KT P6SM FEW100 SCT200
     FM301600 36006KT P6SM FEW120 SCT250
     FM301800 08007KT P6SM SCT050 SCT200=



000
FTUS43 KMKX 291727
TAFMKE
TAF
KMKE 291727Z 2918/3024 30010KT P6SM FEW040 SCT110
     FM292100 31010KT P6SM VCTS BKN050CB
     FM300200 27007KT P6SM SCT060
     FM301200 33005KT P6SM FEW120 SCT200
     FM301600 03006KT P6SM FEW040
     FM302100 09006KT P6SM VCSH SCT050=



000
FTUS43 KMKX 291727
TAFMSN
TAF
KMSN 291727Z 2918/3018 33008KT P6SM SCT040
     FM292100 32008KT P6SM VCTS BKN050CB
     FM300200 30005KT P6SM SCT060
     FM301400 33005KT P6SM FEW040=



000
FTUS43 KMKX 291727
TAFMSN
TAF
KMSN 291727Z 2918/3018 33008KT P6SM SCT040
     FM292100 32008KT P6SM VCTS BKN050CB
     FM300200 30005KT P6SM SCT060
     FM301400 33005KT P6SM FEW040=



000
FTUS43 KMKX 291727
TAFMKE
TAF
KMKE 291727Z 2918/3024 30010KT P6SM FEW040 SCT110
     FM292100 31010KT P6SM VCTS BKN050CB
     FM300200 27007KT P6SM SCT060
     FM301200 33005KT P6SM FEW120 SCT200
     FM301600 03006KT P6SM FEW040
     FM302100 09006KT P6SM VCSH SCT050=



000
FTUS43 KMKX 291520 AAA
TAFMSN
TAF AMD
KMSN 291520Z 2915/3012 33007KT P6SM SCT120
     FM291600 32008KT P6SM SCT050
     FM292000 31009KT P6SM VCTS BKN050CB
     FM300200 28005KT P6SM SCT050=



000
FTUS43 KMKX 291520 AAA
TAFMKE
TAF AMD
KMKE 291520Z 2915/3018 30008KT P6SM SCT120
     FM291600 31009KT P6SM SCT050
     FM292000 31009KT P6SM VCTS BKN050CB
     FM300200 VRB04KT P6SM SCT050
     FM301600 03006KT P6SM SCT040=



000
FTUS43 KMKX 291520 AAA
TAFMKE
TAF AMD
KMKE 291520Z 2915/3018 30008KT P6SM SCT120
     FM291600 31009KT P6SM SCT050
     FM292000 31009KT P6SM VCTS BKN050CB
     FM300200 VRB04KT P6SM SCT050
     FM301600 03006KT P6SM SCT040=



000
FTUS43 KMKX 291520 AAA
TAFMSN
TAF AMD
KMSN 291520Z 2915/3012 33007KT P6SM SCT120
     FM291600 32008KT P6SM SCT050
     FM292000 31009KT P6SM VCTS BKN050CB
     FM300200 28005KT P6SM SCT050=



000
FTUS43 KMKX 291135
TAFMKE
TAF
KMKE 291135Z 2912/3018 30008KT P6SM FEW060 SCT090
     FM291400 32010KT P6SM SCT030 SCT090
     FM291700 31008KT P6SM SCT040 SCT080
     FM292000 31007KT P6SM VCTS BKN050CB
     FM300200 VRB04KT P6SM VCSH SCT060 SCT100
     FM300500 28005KT P6SM BKN060
     FM301600 02006KT P6SM SCT040=



000
FTUS43 KMKX 291135
TAFMSN
TAF
KMSN 291135Z 2912/3012 30006KT P6SM FEW060 SCT090
     FM291600 32008KT P6SM SCT030 SCT060
     FM292000 32008KT P6SM VCTS BKN050CB
     FM300100 28004KT P6SM VCSH SCT060 SCT100
     FM300400 27003KT P6SM SCT080=



000
FTUS43 KMKX 291135
TAFMKE
TAF
KMKE 291135Z 2912/3018 30008KT P6SM FEW060 SCT090
     FM291400 32010KT P6SM SCT030 SCT090
     FM291700 31008KT P6SM SCT040 SCT080
     FM292000 31007KT P6SM VCTS BKN050CB
     FM300200 VRB04KT P6SM VCSH SCT060 SCT100
     FM300500 28005KT P6SM BKN060
     FM301600 02006KT P6SM SCT040=



000
FTUS43 KMKX 291135
TAFMSN
TAF
KMSN 291135Z 2912/3012 30006KT P6SM FEW060 SCT090
     FM291600 32008KT P6SM SCT030 SCT060
     FM292000 32008KT P6SM VCTS BKN050CB
     FM300100 28004KT P6SM VCSH SCT060 SCT100
     FM300400 27003KT P6SM SCT080=



000
FTUS43 KMKX 290845 AAA
TAFMKE
TAF AMD
KMKE 290845Z 2909/3012 26005KT P6SM SCT070 BKN090
     FM291100 27004KT P6SM FEW060 SCT090
     FM291700 31008KT P6SM SCT060
     FM292000 08008KT P6SM VCTS BKN060CB
     FM300200 VRB04KT P6SM SCT060
     FM300500 28005KT P6SM SCT060=



000
FTUS43 KMKX 290845 AAA
TAFMKE
TAF AMD
KMKE 290845Z 2909/3012 26005KT P6SM SCT070 BKN090
     FM291100 27004KT P6SM FEW060 SCT090
     FM291700 31008KT P6SM SCT060
     FM292000 08008KT P6SM VCTS BKN060CB
     FM300200 VRB04KT P6SM SCT060
     FM300500 28005KT P6SM SCT060=



000
FTUS43 KMKX 290520
TAFMKE
TAF
KMKE 290520Z 2906/3012 21004KT P6SM SCT070 BKN090
     FM291100 27004KT P6SM FEW060 SCT090
     FM291700 31008KT P6SM SCT060
     FM292000 08008KT P6SM VCTS BKN060CB
     FM300200 VRB04KT P6SM SCT060
     FM300500 28005KT P6SM SCT060=



000
FTUS43 KMKX 290520
TAFMSN
TAF
KMSN 290520Z 2906/3006 30005KT P6SM FEW060 BKN090
     FM291000 30003KT P6SM FEW060 SCT090
     FM291600 32008KT P6SM SCT060
     FM292000 32008KT P6SM VCTS BKN060CB
     FM300100 28004KT P6SM SCT060=



000
FTUS43 KMKX 290520
TAFMSN
TAF
KMSN 290520Z 2906/3006 30005KT P6SM FEW060 BKN090
     FM291000 30003KT P6SM FEW060 SCT090
     FM291600 32008KT P6SM SCT060
     FM292000 32008KT P6SM VCTS BKN060CB
     FM300100 28004KT P6SM SCT060=



000
FTUS43 KMKX 290520
TAFMKE
TAF
KMKE 290520Z 2906/3012 21004KT P6SM SCT070 BKN090
     FM291100 27004KT P6SM FEW060 SCT090
     FM291700 31008KT P6SM SCT060
     FM292000 08008KT P6SM VCTS BKN060CB
     FM300200 VRB04KT P6SM SCT060
     FM300500 28005KT P6SM SCT060=



000
FTUS43 KMKX 290337 AAA
TAFMKE
TAF AMD
KMKE 290337Z 2904/3006 VRB04KT P6SM SCT090
     FM290700 27004KT P6SM SCT060 BKN090
     FM291700 31008KT P6SM SCT060
     FM292000 30008KT P6SM VCTS BKN060CB
     FM300200 28006KT P6SM SCT060=



000
FTUS43 KMKX 290337 AAA
TAFMKE
TAF AMD
KMKE 290337Z 2904/3006 VRB04KT P6SM SCT090
     FM290700 27004KT P6SM SCT060 BKN090
     FM291700 31008KT P6SM SCT060
     FM292000 30008KT P6SM VCTS BKN060CB
     FM300200 28006KT P6SM SCT060=



000
FTUS43 KMKX 282344
TAFMSN
TAF
KMSN 282344Z 2900/2924 32006KT P6SM SCT060
     FM290800 30003KT P6SM SCT060
     FM291700 32008KT P6SM SCT060
     FM292000 32008KT P6SM VCTS BKN060CB=



000
FTUS43 KMKX 282344
TAFMKE
TAF
KMKE 282344Z 2900/3006 10004KT P6SM SCT060 BKN080
     FM290300 19004KT P6SM SCT060 BKN080
     FM290600 25005KT P6SM SCT060
     FM291000 29006KT P6SM SCT060
     FM291700 31008KT P6SM SCT060
     FM292000 30008KT P6SM VCTS BKN060CB
     FM300200 28006KT P6SM SCT060=



000
FTUS43 KMKX 282344
TAFMSN
TAF
KMSN 282344Z 2900/2924 32006KT P6SM SCT060
     FM290800 30003KT P6SM SCT060
     FM291700 32008KT P6SM SCT060
     FM292000 32008KT P6SM VCTS BKN060CB=



000
FTUS43 KMKX 282344
TAFMKE
TAF
KMKE 282344Z 2900/3006 10004KT P6SM SCT060 BKN080
     FM290300 19004KT P6SM SCT060 BKN080
     FM290600 25005KT P6SM SCT060
     FM291000 29006KT P6SM SCT060
     FM291700 31008KT P6SM SCT060
     FM292000 30008KT P6SM VCTS BKN060CB
     FM300200 28006KT P6SM SCT060=



000
FTUS43 KMKX 282229 AAB
TAFMSN
TAF AMD
KMSN 282229Z 2822/2918 33008KT P6SM SCT060
     FM290100 VRB03KT P6SM SCT060
     FM291400 32006KT P6SM SCT040=



000
FTUS43 KMKX 282229 AAB
TAFMSN
TAF AMD
KMSN 282229Z 2822/2918 33008KT P6SM SCT060
     FM290100 VRB03KT P6SM SCT060
     FM291400 32006KT P6SM SCT040=



000
FTUS43 KMKX 282033 AAA
TAFMSN
TAF AMD
KMSN 282033Z 2821/2918 35007KT P6SM BKN060
     FM290000 VRB03KT P6SM BKN050
     FM291400 32006KT P6SM SCT040=



000
FTUS43 KMKX 282033 AAA
TAFMKE
TAF AMD
KMKE 282033Z 2821/2924 04008KT P6SM SCT040 SCT250
     FM290000 VRB05KT P6SM BKN050
     FM291400 31009KT P6SM SCT040
     FM292000 30010KT P6SM -SHRA VCTS BKN050CB BKN150=



000
FTUS43 KMKX 282033 AAA
TAFMKE
TAF AMD
KMKE 282033Z 2821/2924 04008KT P6SM SCT040 SCT250
     FM290000 VRB05KT P6SM BKN050
     FM291400 31009KT P6SM SCT040
     FM292000 30010KT P6SM -SHRA VCTS BKN050CB BKN150=



000
FTUS43 KMKX 282033 AAA
TAFMSN
TAF AMD
KMSN 282033Z 2821/2918 35007KT P6SM BKN060
     FM290000 VRB03KT P6SM BKN050
     FM291400 32006KT P6SM SCT040=



000
FTUS43 KMKX 281743
TAFMSN
TAF
KMSN 281743Z 2818/2918 35010G17KT P6SM SCT040
     FM282100 35007KT P6SM SCT040
     FM290000 VRB03KT P6SM BKN050
     FM291400 32006KT P6SM SCT040=



000
FTUS43 KMKX 281743
TAFMKE
TAF
KMKE 281743Z 2818/2924 01010G17KT P6SM SCT040
     FM282100 02008KT P6SM SCT040
     FM290000 VRB05KT P6SM BKN050
     FM291400 31009KT P6SM SCT040
     FM292000 30010KT P6SM -SHRA VCTS BKN050CB BKN150=



000
FTUS43 KMKX 281743
TAFMKE
TAF
KMKE 281743Z 2818/2924 01010G17KT P6SM SCT040
     FM282100 02008KT P6SM SCT040
     FM290000 VRB05KT P6SM BKN050
     FM291400 31009KT P6SM SCT040
     FM292000 30010KT P6SM -SHRA VCTS BKN050CB BKN150=



000
FTUS43 KMKX 281743
TAFMSN
TAF
KMSN 281743Z 2818/2918 35010G17KT P6SM SCT040
     FM282100 35007KT P6SM SCT040
     FM290000 VRB03KT P6SM BKN050
     FM291400 32006KT P6SM SCT040=



000
FTUS43 KMKX 281509 AAA
TAFMSN
TAF AMD
KMSN 281509Z 2815/2912 35011KT P6SM SCT040 SCT250
     FM282300 33005KT P6SM BKN050
     FM290500 VRB03KT P6SM SCT060=



000
FTUS43 KMKX 281509 AAA
TAFMKE
TAF AMD
KMKE 281509Z 2815/2918 01014G21KT P6SM FEW040 SCT250
     FM281800 02010G17KT P6SM SCT040
     FM290000 27007KT P6SM BKN050
     FM290700 29004KT P6SM SCT060
     FM291400 31009KT P6SM SKC=



000
FTUS43 KMKX 281509 AAA
TAFMSN
TAF AMD
KMSN 281509Z 2815/2912 35011KT P6SM SCT040 SCT250
     FM282300 33005KT P6SM BKN050
     FM290500 VRB03KT P6SM SCT060=



000
FTUS43 KMKX 281509 AAA
TAFMKE
TAF AMD
KMKE 281509Z 2815/2918 01014G21KT P6SM FEW040 SCT250
     FM281800 02010G17KT P6SM SCT040
     FM290000 27007KT P6SM BKN050
     FM290700 29004KT P6SM SCT060
     FM291400 31009KT P6SM SKC=



000
FTUS43 KMKX 281120
TAFMSN
TAF
KMSN 281120Z 2812/2912 33008KT P6SM SKC
     FM281500 35011KT P6SM SCT040
     FM282300 33005KT P6SM BKN050
     FM290500 VRB03KT P6SM SCT060=



000
FTUS43 KMKX 281120
TAFMKE
TAF
KMKE 281120Z 2812/2918 33012KT P6SM SKC
     FM281500 01014G22KT P6SM FEW040
     FM281800 02010G17KT P6SM SCT040
     FM290000 27007KT P6SM BKN050
     FM290700 29004KT P6SM SCT060
     FM291400 31009KT P6SM SKC=



000
FTUS43 KMKX 281120
TAFMKE
TAF
KMKE 281120Z 2812/2918 33012KT P6SM SKC
     FM281500 01014G22KT P6SM FEW040
     FM281800 02010G17KT P6SM SCT040
     FM290000 27007KT P6SM BKN050
     FM290700 29004KT P6SM SCT060
     FM291400 31009KT P6SM SKC=



000
FTUS43 KMKX 281120
TAFMSN
TAF
KMSN 281120Z 2812/2912 33008KT P6SM SKC
     FM281500 35011KT P6SM SCT040
     FM282300 33005KT P6SM BKN050
     FM290500 VRB03KT P6SM SCT060=



000
FTUS43 KMKX 280657 AAA
TAFMKE
TAF AMD
KMKE 280657Z 2807/2912 34010KT P6SM FEW080
     FM281300 01014G22KT P6SM SCT030
     FM281700 02010G17KT P6SM SCT040
     FM290200 23005KT P6SM BKN050=



000
FTUS43 KMKX 280657 AAA
TAFMKE
TAF AMD
KMKE 280657Z 2807/2912 34010KT P6SM FEW080
     FM281300 01014G22KT P6SM SCT030
     FM281700 02010G17KT P6SM SCT040
     FM290200 23005KT P6SM BKN050=



000
FTUS43 KMKX 280520
TAFMKE
TAF
KMKE 280520Z 2806/2912 34011G18KT P6SM SCT040 SCT060
     FM281300 01014G22KT P6SM SCT030
     FM281700 02010G17KT P6SM SCT040
     FM290200 23005KT P6SM BKN050=



000
FTUS43 KMKX 280520
TAFMSN
TAF
KMSN 280520Z 2806/2906 36010KT P6SM SCT035
     FM281400 36010G17KT P6SM SCT030
     FM281600 34011G18KT P6SM SCT035
      TEMPO 2816/2819 BKN035
     FM290100 31005KT P6SM BKN060=



000
FTUS43 KMKX 280520
TAFMSN
TAF
KMSN 280520Z 2806/2906 36010KT P6SM SCT035
     FM281400 36010G17KT P6SM SCT030
     FM281600 34011G18KT P6SM SCT035
      TEMPO 2816/2819 BKN035
     FM290100 31005KT P6SM BKN060=



000
FTUS43 KMKX 280520
TAFMKE
TAF
KMKE 280520Z 2806/2912 34011G18KT P6SM SCT040 SCT060
     FM281300 01014G22KT P6SM SCT030
     FM281700 02010G17KT P6SM SCT040
     FM290200 23005KT P6SM BKN050=



000
FTUS43 KMKX 280248 AAA
TAFMKE
TAF AMD
KMKE 280248Z 2803/2906 36014G24KT P6SM SCT025 BKN040
      TEMPO 2803/2806 BKN025
     FM280600 36012G20KT P6SM FEW015 SCT030
     FM281300 01014G22KT P6SM FEW030
     FM281700 02010G17KT P6SM SCT040
     FM290100 23005KT P6SM BKN050=



000
FTUS43 KMKX 280248 AAA
TAFMKE
TAF AMD
KMKE 280248Z 2803/2906 36014G24KT P6SM SCT025 BKN040
      TEMPO 2803/2806 BKN025
     FM280600 36012G20KT P6SM FEW015 SCT030
     FM281300 01014G22KT P6SM FEW030
     FM281700 02010G17KT P6SM SCT040
     FM290100 23005KT P6SM BKN050=



000
FTUS43 KMKX 280244 AAB
TAFMSN
TAF AMD
KMSN 280244Z 2803/2824 35008G15KT P6SM SCT035 BKN080
      TEMPO 2803/2805 SCT025 BKN035
     FM280600 35007KT P6SM SCT030
     FM281400 36010G17KT P6SM SCT035
     FM281600 36011KT P6SM SCT040=



000
FTUS43 KMKX 280244 AAB
TAFMSN
TAF AMD
KMSN 280244Z 2803/2824 35008G15KT P6SM SCT035 BKN080
      TEMPO 2803/2805 SCT025 BKN035
     FM280600 35007KT P6SM SCT030
     FM281400 36010G17KT P6SM SCT035
     FM281600 36011KT P6SM SCT040=



000
FTUS43 KMKX 280132 AAA
TAFMSN
TAF AMD
KMSN 280132Z 2802/2824 34008G15KT P6SM VCSH SCT040 BKN080
      TEMPO 2802/2803 BKN040
     FM280300 35008G16KT P6SM SCT025 SCT080
      TEMPO 2803/2806 BKN025
     FM280600 35007KT P6SM SCT030
     FM281400 36010G17KT P6SM SCT035
     FM281600 36011KT P6SM SCT040=



000
FTUS43 KMKX 280132 AAA
TAFMSN
TAF AMD
KMSN 280132Z 2802/2824 34008G15KT P6SM VCSH SCT040 BKN080
      TEMPO 2802/2803 BKN040
     FM280300 35008G16KT P6SM SCT025 SCT080
      TEMPO 2803/2806 BKN025
     FM280600 35007KT P6SM SCT030
     FM281400 36010G17KT P6SM SCT035
     FM281600 36011KT P6SM SCT040=



000
FTUS43 KMKX 272333
TAFMSN
TAF
KMSN 272333Z 2800/2824 32010G20KT P6SM VCSH SCT040 BKN080
      TEMPO 2800/2801 5SM -SHRA BKN040
     FM280100 35008G16KT P6SM SCT025 SCT080
      TEMPO 2802/2806 BKN025
     FM280600 35007KT P6SM SCT030
     FM281400 36010G17KT P6SM SCT035
     FM281600 36011KT P6SM SCT040=



000
FTUS43 KMKX 272333
TAFMKE
TAF
KMKE 272333Z 2800/2906 32011G20KT P6SM VCSH SCT040 BKN080
      TEMPO 2800/2801 5SM -SHRA BKN040
     FM280100 35013G23KT P6SM VCSH SCT015 BKN035
      TEMPO 2801/2802 01018G28KT
     FM280200 36014G24KT P6SM SCT015 BKN025
     FM280600 36014G22KT P6SM FEW015 SCT030
     FM281300 01014G22KT P6SM FEW030
     FM281700 02010G17KT P6SM SCT040
     FM290100 23005KT P6SM BKN050=



000
FTUS43 KMKX 272333
TAFMKE
TAF
KMKE 272333Z 2800/2906 32011G20KT P6SM VCSH SCT040 BKN080
      TEMPO 2800/2801 5SM -SHRA BKN040
     FM280100 35013G23KT P6SM VCSH SCT015 BKN035
      TEMPO 2801/2802 01018G28KT
     FM280200 36014G24KT P6SM SCT015 BKN025
     FM280600 36014G22KT P6SM FEW015 SCT030
     FM281300 01014G22KT P6SM FEW030
     FM281700 02010G17KT P6SM SCT040
     FM290100 23005KT P6SM BKN050=



000
FTUS43 KMKX 272333
TAFMSN
TAF
KMSN 272333Z 2800/2824 32010G20KT P6SM VCSH SCT040 BKN080
      TEMPO 2800/2801 5SM -SHRA BKN040
     FM280100 35008G16KT P6SM SCT025 SCT080
      TEMPO 2802/2806 BKN025
     FM280600 35007KT P6SM SCT030
     FM281400 36010G17KT P6SM SCT035
     FM281600 36011KT P6SM SCT040=



000
FTUS43 KMKX 272217 AAC
TAFMSN
TAF AMD
KMSN 272217Z 2722/2818 32012G21KT P6SM VCTS SCT040 BKN080CB
      TEMPO 2722/2723 4SM -TSRA BKN040CB
     FM280000 35009KT P6SM VCSH BKN035
     FM280200 35006KT P6SM SCT035
     FM281300 36010G17KT P6SM SCT040=



000
FTUS43 KMKX 272217 AAC
TAFMSN
TAF AMD
KMSN 272217Z 2722/2818 32012G21KT P6SM VCTS SCT040 BKN080CB
      TEMPO 2722/2723 4SM -TSRA BKN040CB
     FM280000 35009KT P6SM VCSH BKN035
     FM280200 35006KT P6SM SCT035
     FM281300 36010G17KT P6SM SCT040=



000
FTUS43 KMKX 272150 AAD
TAFMKE
TAF AMD
KMKE 272150Z 2722/2824 32013G24KT P6SM VCTS BKN050CB
      TEMPO 2722/2723 36020G30KT 5SM -TSRA BKN040CB
     FM280000 35013G23KT P6SM VCSH BKN035
     FM280300 35014G22KT P6SM BKN035
     FM280800 35014KT P6SM SCT040
     FM281300 02014G22KT P6SM SKC
     FM281700 02010G17KT P6SM SCT040=



000
FTUS43 KMKX 272046 AAC
TAFMKE
TAF AMD
KMKE 272046Z 2721/2824 32013G24KT P6SM VCTS BKN050CB
      TEMPO 2721/2723 5SM -TSRA BKN040CB
     FM280000 35013G23KT P6SM VCSH BKN035
     FM280300 35014G22KT P6SM BKN035
     FM280800 35014KT P6SM SCT040
     FM281300 02014G22KT P6SM SKC
     FM281700 02010G17KT P6SM SCT040=



000
FTUS43 KMKX 272046 AAB
TAFMSN
TAF AMD
KMSN 272046Z 2721/2818 32012G21KT P6SM VCTS BKN050CB
      TEMPO 2721/2723 4SM -TSRA BKN040CB
     FM280000 35009KT P6SM VCSH BKN035
     FM280200 35006KT P6SM SCT035
     FM281300 36010G17KT P6SM SCT040=



000
FTUS43 KMKX 272046 AAB
TAFMSN
TAF AMD
KMSN 272046Z 2721/2818 32012G21KT P6SM VCTS BKN050CB
      TEMPO 2721/2723 4SM -TSRA BKN040CB
     FM280000 35009KT P6SM VCSH BKN035
     FM280200 35006KT P6SM SCT035
     FM281300 36010G17KT P6SM SCT040=



000
FTUS43 KMKX 272046 AAC
TAFMKE
TAF AMD
KMKE 272046Z 2721/2824 32013G24KT P6SM VCTS BKN050CB
      TEMPO 2721/2723 5SM -TSRA BKN040CB
     FM280000 35013G23KT P6SM VCSH BKN035
     FM280300 35014G22KT P6SM BKN035
     FM280800 35014KT P6SM SCT040
     FM281300 02014G22KT P6SM SKC
     FM281700 02010G17KT P6SM SCT040=



000
FTUS43 KMKX 271806 RRA
TAFMSN
TAF
KMSN 271806Z 2718/2818 31011G18KT P6SM SCT050
     FM271900 32012G21KT P6SM -SHRA VCTS BKN050CB
      TEMPO 2720/2723 5SM SHRA BKN040
     FM280000 35009KT P6SM VCSH BKN035
     FM280200 35006KT P6SM SCT035
     FM281300 36010G17KT P6SM SCT040=



000
FTUS43 KMKX 271806 RRA
TAFMSN
TAF
KMSN 271806Z 2718/2818 31011G18KT P6SM SCT050
     FM271900 32012G21KT P6SM -SHRA VCTS BKN050CB
      TEMPO 2720/2723 5SM SHRA BKN040
     FM280000 35009KT P6SM VCSH BKN035
     FM280200 35006KT P6SM SCT035
     FM281300 36010G17KT P6SM SCT040=



000
FTUS43 KMKX 271806 RRA
TAFMKE
TAF
KMKE 271806Z 2718/2824 29012G21KT P6SM SCT050
     FM271900 32013G24KT P6SM -SHRA VCTS BKN050CB
      TEMPO 2720/2723 3SM SHRA BKN040
     FM280000 35013G23KT P6SM VCSH BKN035
     FM280300 35014G22KT P6SM BKN035
     FM280800 35014KT P6SM SCT040
     FM281300 02014G22KT P6SM SKC
     FM281700 02010G17KT P6SM SCT040=



000
FTUS43 KMKX 271806 RRA
TAFMKE
TAF
KMKE 271806Z 2718/2824 29012G21KT P6SM SCT050
     FM271900 32013G24KT P6SM -SHRA VCTS BKN050CB
      TEMPO 2720/2723 3SM SHRA BKN040
     FM280000 35013G23KT P6SM VCSH BKN035
     FM280300 35014G22KT P6SM BKN035
     FM280800 35014KT P6SM SCT040
     FM281300 02014G22KT P6SM SKC
     FM281700 02010G17KT P6SM SCT040=



000
FTUS43 KMKX 271523 AAA
TAFMSN
TAF AMD
KMSN 271523Z 2715/2812 29008G15KT P6SM SCT050
     FM271800 32011G18KT P6SM -SHRA VCTS BKN050CB BKN080
      TEMPO 2719/2722 4SM SHRA BKN040
     FM272300 34011KT P6SM VCSH SCT015 BKN035
     FM280200 01007KT P6SM BKN050
     FM280800 35014KT P6SM SCT050=



000
FTUS43 KMKX 271523 AAB
TAFMKE
TAF AMD
KMKE 271523Z 2715/2818 26009KT P6SM SCT100
     FM271600 27010KT P6SM SCT050
     FM271900 30012G18KT P6SM -SHRA VCTS BKN050CB BKN080
      TEMPO 2720/2723 3SM SHRA BKN040
     FM280000 34013G20KT P6SM VCSH SCT015 BKN035
     FM280300 35014G20KT P6SM BKN045
     FM280800 35014KT P6SM SCT050
     FM281300 02013KT P6SM SKC=



000
FTUS43 KMKX 271523 AAA
TAFMSN
TAF AMD
KMSN 271523Z 2715/2812 29008G15KT P6SM SCT050
     FM271800 32011G18KT P6SM -SHRA VCTS BKN050CB BKN080
      TEMPO 2719/2722 4SM SHRA BKN040
     FM272300 34011KT P6SM VCSH SCT015 BKN035
     FM280200 01007KT P6SM BKN050
     FM280800 35014KT P6SM SCT050=



000
FTUS43 KMKX 271523 AAB
TAFMKE
TAF AMD
KMKE 271523Z 2715/2818 26009KT P6SM SCT100
     FM271600 27010KT P6SM SCT050
     FM271900 30012G18KT P6SM -SHRA VCTS BKN050CB BKN080
      TEMPO 2720/2723 3SM SHRA BKN040
     FM280000 34013G20KT P6SM VCSH SCT015 BKN035
     FM280300 35014G20KT P6SM BKN045
     FM280800 35014KT P6SM SCT050
     FM281300 02013KT P6SM SKC=



000
FTUS43 KMKX 271250 AAA
TAFMKE
TAF AMD
KMKE 271250Z 2713/2818 25008KT P6SM SCT100
     FM271600 27010KT P6SM VCTS SCT050CB BKN100
     FM271900 30012G18KT P6SM -SHRA BKN050 BKN080
      TEMPO 2720/2723 3SM SHRA BKN040
     FM280000 34013G20KT P6SM VCSH SCT015 BKN035
     FM280300 35014G20KT P6SM BKN045
     FM280800 35014KT P6SM SCT050
     FM281300 02013KT P6SM SKC=



000
FTUS43 KMKX 271250 AAA
TAFMKE
TAF AMD
KMKE 271250Z 2713/2818 25008KT P6SM SCT100
     FM271600 27010KT P6SM VCTS SCT050CB BKN100
     FM271900 30012G18KT P6SM -SHRA BKN050 BKN080
      TEMPO 2720/2723 3SM SHRA BKN040
     FM280000 34013G20KT P6SM VCSH SCT015 BKN035
     FM280300 35014G20KT P6SM BKN045
     FM280800 35014KT P6SM SCT050
     FM281300 02013KT P6SM SKC=



000
FTUS43 KMKX 271120
TAFMKE
TAF
KMKE 271120Z 2712/2818 25008KT P6SM BKN100
     FM271600 27010KT P6SM VCTS SCT050CB BKN100
     FM271900 30012G18KT P6SM -SHRA BKN050 BKN080
      TEMPO 2720/2723 3SM SHRA BKN040
     FM280000 34013G20KT P6SM VCSH SCT015 BKN035
     FM280300 35014G20KT P6SM BKN045
     FM280800 35014KT P6SM SCT050
     FM281300 02013KT P6SM SKC=



000
FTUS43 KMKX 271120
TAFMSN
TAF
KMSN 271120Z 2712/2812 26008KT P6SM SCT100
     FM271400 27010KT P6SM VCTS SCT050CB BKN100
     FM271800 32011G18KT P6SM -SHRA BKN050 BKN080
      TEMPO 2719/2722 4SM SHRA BKN040
     FM272300 34011KT P6SM VCSH SCT015 BKN035
     FM280200 01007KT P6SM BKN050
     FM280800 35014KT P6SM SCT050=



000
FTUS43 KMKX 271120
TAFMKE
TAF
KMKE 271120Z 2712/2818 25008KT P6SM BKN100
     FM271600 27010KT P6SM VCTS SCT050CB BKN100
     FM271900 30012G18KT P6SM -SHRA BKN050 BKN080
      TEMPO 2720/2723 3SM SHRA BKN040
     FM280000 34013G20KT P6SM VCSH SCT015 BKN035
     FM280300 35014G20KT P6SM BKN045
     FM280800 35014KT P6SM SCT050
     FM281300 02013KT P6SM SKC=



000
FTUS43 KMKX 271120
TAFMSN
TAF
KMSN 271120Z 2712/2812 26008KT P6SM SCT100
     FM271400 27010KT P6SM VCTS SCT050CB BKN100
     FM271800 32011G18KT P6SM -SHRA BKN050 BKN080
      TEMPO 2719/2722 4SM SHRA BKN040
     FM272300 34011KT P6SM VCSH SCT015 BKN035
     FM280200 01007KT P6SM BKN050
     FM280800 35014KT P6SM SCT050=



000
FTUS43 KMKX 271005 AAE
TAFMSN
TAF AMD
KMSN 271005Z 2710/2806 VRB03KT P6SM SCT005
     FM271200 23006KT P6SM SCT050 BKN100
     FM271400 28009G15KT P6SM SCT040 BKN080
     FM271500 31013G22KT P6SM VCSH BKN040 BKN080
      TEMPO 2716/2720 5SM SHRA BKN035
     FM280100 34010KT P6SM BKN025=



000
FTUS43 KMKX 271005 AAE
TAFMSN
TAF AMD
KMSN 271005Z 2710/2806 VRB03KT P6SM SCT005
     FM271200 23006KT P6SM SCT050 BKN100
     FM271400 28009G15KT P6SM SCT040 BKN080
     FM271500 31013G22KT P6SM VCSH BKN040 BKN080
      TEMPO 2716/2720 5SM SHRA BKN035
     FM280100 34010KT P6SM BKN025=



000
FTUS43 KMKX 270904 AAA
TAFMKE
TAF AMD
KMKE 270904Z 2709/2812 22005KT P6SM BKN100
      TEMPO 2709/2713 4SM BR
     FM271500 26008KT P6SM VCTS SCT050CB BKN100
     FM271700 29012G22KT P6SM VCSH SCT040 BKN080
      TEMPO 2717/2720 3SM SHRA BKN040
     FM280300 36014G20KT P6SM SCT015 BKN040=



000
FTUS43 KMKX 270904 AAA
TAFMKE
TAF AMD
KMKE 270904Z 2709/2812 22005KT P6SM BKN100
      TEMPO 2709/2713 4SM BR
     FM271500 26008KT P6SM VCTS SCT050CB BKN100
     FM271700 29012G22KT P6SM VCSH SCT040 BKN080
      TEMPO 2717/2720 3SM SHRA BKN040
     FM280300 36014G20KT P6SM SCT015 BKN040=



000
FTUS43 KMKX 270901 AAD
TAFMSN
TAF AMD
KMSN 270901Z 2709/2806 VRB03KT P6SM SCT005
      TEMPO 2709/2712 4SM BR SCT005
     FM271200 23006KT P6SM SCT050 BKN100
     FM271400 28009G15KT P6SM SCT040 BKN080
     FM271500 31013G22KT P6SM VCSH BKN040 BKN080
      TEMPO 2716/2720 5SM SHRA BKN035
     FM280100 34010KT P6SM BKN025=



000
FTUS43 KMKX 270901 AAD
TAFMSN
TAF AMD
KMSN 270901Z 2709/2806 VRB03KT P6SM SCT005
      TEMPO 2709/2712 4SM BR SCT005
     FM271200 23006KT P6SM SCT050 BKN100
     FM271400 28009G15KT P6SM SCT040 BKN080
     FM271500 31013G22KT P6SM VCSH BKN040 BKN080
      TEMPO 2716/2720 5SM SHRA BKN035
     FM280100 34010KT P6SM BKN025=



000
FTUS43 KMKX 270821 AAC
TAFMSN
TAF AMD
KMSN 270821Z 2708/2806 VRB03KT 6SM BR SCT005
      TEMPO 2708/2710 1 1/2SM BR SCT005
     FM271000 23005KT 4SM BR SCT050 BKN100
     FM271300 28009G15KT P6SM SCT040 BKN080
     FM271500 31013G22KT P6SM VCSH BKN040 BKN080
      TEMPO 2716/2720 5SM SHRA BKN035
     FM280100 34010KT P6SM BKN025=



000
FTUS43 KMKX 270821 AAC
TAFMSN
TAF AMD
KMSN 270821Z 2708/2806 VRB03KT 6SM BR SCT005
      TEMPO 2708/2710 1 1/2SM BR SCT005
     FM271000 23005KT 4SM BR SCT050 BKN100
     FM271300 28009G15KT P6SM SCT040 BKN080
     FM271500 31013G22KT P6SM VCSH BKN040 BKN080
      TEMPO 2716/2720 5SM SHRA BKN035
     FM280100 34010KT P6SM BKN025=



000
FTUS43 KMKX 270717 AAB
TAFMSN
TAF AMD
KMSN 270717Z 2707/2806 VRB03KT 1 1/2SM BR SCT005
      TEMPO 2707/2710 1/4SM FG VV005
     FM271000 23005KT 2SM BR SCT050 BKN100
     FM271300 28009G15KT P6SM SCT040 BKN080
     FM271500 31013G22KT P6SM VCSH BKN040 BKN080
      TEMPO 2716/2720 5SM SHRA BKN035
     FM280100 34010KT P6SM BKN025=



000
FTUS43 KMKX 270717 AAB
TAFMSN
TAF AMD
KMSN 270717Z 2707/2806 VRB03KT 1 1/2SM BR SCT005
      TEMPO 2707/2710 1/4SM FG VV005
     FM271000 23005KT 2SM BR SCT050 BKN100
     FM271300 28009G15KT P6SM SCT040 BKN080
     FM271500 31013G22KT P6SM VCSH BKN040 BKN080
      TEMPO 2716/2720 5SM SHRA BKN035
     FM280100 34010KT P6SM BKN025=



000
FTUS43 KMKX 270643 AAA
TAFMSN
TAF AMD
KMSN 270643Z 2707/2806 VRB03KT 6SM BR SCT015 SCT150
      TEMPO 2707/2709 3SM BR SCT002 SCT015
     FM270900 23005KT 3SM BR SCT050 BKN100
     FM271300 28009G15KT P6SM SCT040 BKN080
     FM271500 31013G22KT P6SM VCSH BKN040 BKN080
      TEMPO 2716/2720 5SM SHRA BKN035
     FM280100 34010KT P6SM BKN025=



000
FTUS43 KMKX 270643 AAA
TAFMSN
TAF AMD
KMSN 270643Z 2707/2806 VRB03KT 6SM BR SCT015 SCT150
      TEMPO 2707/2709 3SM BR SCT002 SCT015
     FM270900 23005KT 3SM BR SCT050 BKN100
     FM271300 28009G15KT P6SM SCT040 BKN080
     FM271500 31013G22KT P6SM VCSH BKN040 BKN080
      TEMPO 2716/2720 5SM SHRA BKN035
     FM280100 34010KT P6SM BKN025=



000
FTUS43 KMKX 270528
TAFMSN
TAF
KMSN 270528Z 2706/2806 VRB03KT 3SM BR SCT015 SCT150
      TEMPO 2706/2708 1/2SM FG SCT002 SCT015
     FM270900 23005KT 3SM BR SCT050 BKN100
      TEMPO 2710/2712 5SM -TSRA BR BKN050CB
     FM271300 28009G15KT P6SM SCT040 BKN080
     FM271500 31013G22KT P6SM VCSH BKN040 BKN080
      TEMPO 2716/2720 5SM SHRA BKN035
     FM280100 34010KT P6SM BKN025=



000
FTUS43 KMKX 270528
TAFMKE
TAF
KMKE 270528Z 2706/2812 25003KT 6SM BR SCT150
     FM271000 23005KT 5SM BR SCT120 BKN250
     FM271300 26008KT P6SM VCTS SCT050CB BKN100
      TEMPO 2713/2715 5SM -TSRA BKN050CB
     FM271600 29012G22KT P6SM VCSH SCT040 BKN080
      TEMPO 2716/2720 3SM SHRA BKN040
     FM280300 36014G20KT P6SM SCT015 BKN040=



000
FTUS43 KMKX 270528
TAFMSN
TAF
KMSN 270528Z 2706/2806 VRB03KT 3SM BR SCT015 SCT150
      TEMPO 2706/2708 1/2SM FG SCT002 SCT015
     FM270900 23005KT 3SM BR SCT050 BKN100
      TEMPO 2710/2712 5SM -TSRA BR BKN050CB
     FM271300 28009G15KT P6SM SCT040 BKN080
     FM271500 31013G22KT P6SM VCSH BKN040 BKN080
      TEMPO 2716/2720 5SM SHRA BKN035
     FM280100 34010KT P6SM BKN025=



000
FTUS43 KMKX 270528
TAFMKE
TAF
KMKE 270528Z 2706/2812 25003KT 6SM BR SCT150
     FM271000 23005KT 5SM BR SCT120 BKN250
     FM271300 26008KT P6SM VCTS SCT050CB BKN100
      TEMPO 2713/2715 5SM -TSRA BKN050CB
     FM271600 29012G22KT P6SM VCSH SCT040 BKN080
      TEMPO 2716/2720 3SM SHRA BKN040
     FM280300 36014G20KT P6SM SCT015 BKN040=



000
FTUS43 KMKX 270443 AAA
TAFMSN
TAF AMD
KMSN 270443Z 2705/2724 VRB02KT 3SM BR SCT015 SCT150
      TEMPO 2705/2708 1/2SM FG BKN015
     FM270800 23005KT 4SM BR SCT060 BKN120
      TEMPO 2708/2710 2SM BR
     FM271000 23005KT 4SM BR SCT080 BKN150
     FM271300 29009KT P6SM SCT040 BKN080
     FM271500 31013G22KT P6SM VCSH BKN035 BKN080=



000
FTUS43 KMKX 270443 AAA
TAFMSN
TAF AMD
KMSN 270443Z 2705/2724 VRB02KT 3SM BR SCT015 SCT150
      TEMPO 2705/2708 1/2SM FG BKN015
     FM270800 23005KT 4SM BR SCT060 BKN120
      TEMPO 2708/2710 2SM BR
     FM271000 23005KT 4SM BR SCT080 BKN150
     FM271300 29009KT P6SM SCT040 BKN080
     FM271500 31013G22KT P6SM VCSH BKN035 BKN080=



000
FTUS43 KMKX 270255 AAA
TAFMKE
TAF AMD
KMKE 270255Z 2703/2806 24005KT P6SM SCT150
     FM270600 21003KT 6SM BR SCT150
      TEMPO 2706/2710 4SM BR
     FM271000 23005KT 5SM BR SCT120 BKN250
     FM271400 26010KT P6SM VCSH SCT040 BKN100
     FM271600 29014G23KT P6SM VCSH SCT040 BKN080
      TEMPO 2716/2720 3SM SHRA BKN040
     FM280300 34014G20KT P6SM BKN035=



000
FTUS43 KMKX 270255 AAA
TAFMKE
TAF AMD
KMKE 270255Z 2703/2806 24005KT P6SM SCT150
     FM270600 21003KT 6SM BR SCT150
      TEMPO 2706/2710 4SM BR
     FM271000 23005KT 5SM BR SCT120 BKN250
     FM271400 26010KT P6SM VCSH SCT040 BKN100
     FM271600 29014G23KT P6SM VCSH SCT040 BKN080
      TEMPO 2716/2720 3SM SHRA BKN040
     FM280300 34014G20KT P6SM BKN035=



000
FTUS43 KMKX 262331
TAFMSN
TAF
KMSN 262331Z 2700/2724 23004KT P6SM BKN150
     FM270200 VRB02KT P6SM SCT150
      TEMPO 2704/2707 4SM BR
     FM270700 23005KT 3SM BR SCT120 SCT250
      TEMPO 2707/2710 1SM BR
     FM271000 23005KT 4SM BR SCT080 BKN150
     FM271300 29009KT P6SM SCT040 BKN080
     FM271500 31013G22KT P6SM VCSH BKN035 BKN080=



000
FTUS43 KMKX 262331
TAFMKE
TAF
KMKE 262331Z 2700/2806 23005KT P6SM SCT030 SCT150
     FM270600 21003KT 6SM BR SCT150
      TEMPO 2706/2710 4SM BR
     FM271000 23005KT 5SM BR SCT120 BKN250
     FM271400 26010KT P6SM VCSH SCT040 BKN100
     FM271600 29014G23KT P6SM VCSH SCT040 BKN080
      TEMPO 2716/2720 3SM SHRA BKN040
     FM280300 34014G20KT P6SM BKN035=



000
FTUS43 KMKX 262331
TAFMSN
TAF
KMSN 262331Z 2700/2724 23004KT P6SM BKN150
     FM270200 VRB02KT P6SM SCT150
      TEMPO 2704/2707 4SM BR
     FM270700 23005KT 3SM BR SCT120 SCT250
      TEMPO 2707/2710 1SM BR
     FM271000 23005KT 4SM BR SCT080 BKN150
     FM271300 29009KT P6SM SCT040 BKN080
     FM271500 31013G22KT P6SM VCSH BKN035 BKN080=



000
FTUS43 KMKX 262331
TAFMKE
TAF
KMKE 262331Z 2700/2806 23005KT P6SM SCT030 SCT150
     FM270600 21003KT 6SM BR SCT150
      TEMPO 2706/2710 4SM BR
     FM271000 23005KT 5SM BR SCT120 BKN250
     FM271400 26010KT P6SM VCSH SCT040 BKN100
     FM271600 29014G23KT P6SM VCSH SCT040 BKN080
      TEMPO 2716/2720 3SM SHRA BKN040
     FM280300 34014G20KT P6SM BKN035=



    US Dept of Commerce
    National Oceanic and Atmospheric Administration
    National Weather Service
    1325 East West Highway
    Silver Spring, MD 20910
    Page Author: NWS Internet Services Team
Disclaimer
Information Quality
Credits
Glossary
Privacy Policy
Freedom of Information Act (FOIA)
About Us
Career Opportunities